Heywood, United Kingdom
Current Conditions -  °F | °C
As of 2:20 PM on Friday 19 Dec 2014 (Local Time) from EGCC Reporting Station
Rain Showers Rain Showers  
Wind Chill: 31°   Ceiling: 2500
Heat Index: 39°   Visibility: 6mi
Dew Point: 37°   Wind: 14mph
Humidity: 93%   Direction: 300°WNW
Pressure: 29.94"   Gusts: NA
Location:  53.59°N, 2.22°W
Report Text: EGCC 191420Z 30012KT 9999 6000E -SHRA FEW009 BKN025CB 04/03 Q1014 RESHRA TEMPO SHRA
Loading
Personal Weather Stations






























Interactive Weather Map New forecast layout! Learn more

10-Day Weather Forecast

Advertisements
Track Severe Weather on mobile